GAF350 EDVK-ETHL

Flight info

Callsign GAF350
Flight time 1h 35m
Altitude 1111
Route VFR
Aircraft EC45/L-SDE3FGHIRWY/S

Departure

Time 2026-04-27 15:51
Airport Kassel Airport (EDVK)

Arrival

Time 2026-04-27 17:26
Airport Laupheim Air Base (ETHL)
Time Latitude Longitude Altitude Speed Heading
2026-04-27 15:46 51.41819 9.39698 860 ft 0 kts
2026-04-27 15:50 51.41836 9.39779 877 ft 19 kts 346°
2026-04-27 15:50 51.41902 9.39542 907 ft 44 kts 272°
2026-04-27 15:50 51.41934 9.38772 1133 ft 87 kts 271°
2026-04-27 15:50 51.41653 9.37830 1365 ft 103 kts 227°
2026-04-27 15:51 51.40978 9.37409 1655 ft 108 kts 180°
2026-04-27 15:51 51.40296 9.37812 1945 ft 106 kts 134°
2026-04-27 15:51 51.39884 9.38835 2103 ft 115 kts 112°
2026-04-27 15:51 51.39524 9.40076 2076 ft 130 kts 109°
2026-04-27 15:52 51.39130 9.41441 1967 ft 138 kts 110°
2026-04-27 15:52 51.38737 9.42806 1923 ft 133 kts 112°
2026-04-27 15:52 51.38352 9.44127 1954 ft 128 kts 112°
2026-04-27 15:52 51.37964 9.45395 2027 ft 127 kts 112°
2026-04-27 15:53 51.37574 9.46685 2051 ft 129 kts 111°
2026-04-27 15:53 51.37176 9.47973 2070 ft 129 kts 114°
2026-04-27 15:53 51.36759 9.49257 2039 ft 131 kts 113°
2026-04-27 15:53 51.36340 9.50550 2048 ft 131 kts 113°
2026-04-27 15:54 51.35918 9.51847 2005 ft 131 kts 115°
2026-04-27 15:54 51.35467 9.53120 1937 ft 131 kts 117°
2026-04-27 15:54 51.34958 9.54320 1977 ft 129 kts 122°
2026-04-27 15:54 51.34354 9.55387 2045 ft 130 kts 137°
2026-04-27 15:55 51.33562 9.56093 2125 ft 132 kts 155°
2026-04-27 15:55 51.32661 9.56408 2184 ft 132 kts 167°
2026-04-27 15:55 51.31753 9.56644 2271 ft 132 kts 168°
2026-04-27 15:55 51.30849 9.56853 2387 ft 131 kts 169°
2026-04-27 15:56 51.29941 9.57032 2423 ft 133 kts 171°
2026-04-27 15:56 51.29013 9.57190 2441 ft 135 kts 172°
2026-04-27 15:56 51.28067 9.57328 2513 ft 137 kts 172°
2026-04-27 15:56 51.27112 9.57447 2574 ft 138 kts 174°
2026-04-27 15:57 51.26144 9.57550 2670 ft 139 kts 173°
2026-04-27 15:57 51.25188 9.57634 2702 ft 140 kts 174°
2026-04-27 15:57 51.24214 9.57703 2709 ft 140 kts 175°
2026-04-27 15:57 51.23238 9.57755 2661 ft 141 kts 175°
2026-04-27 15:58 51.22257 9.57794 2651 ft 141 kts 176°
2026-04-27 15:58 51.21277 9.57817 2644 ft 141 kts 177°
2026-04-27 15:58 51.20300 9.57827 2644 ft 141 kts 178°
2026-04-27 15:58 51.19319 9.57822 2581 ft 141 kts 179°
2026-04-27 15:59 51.18339 9.57804 2563 ft 141 kts 179°
2026-04-27 15:59 51.17357 9.57771 2547 ft 141 kts 179°
2026-04-27 15:59 51.16380 9.57722 2444 ft 140 kts 180°
2026-04-27 15:59 51.15401 9.57661 2421 ft 141 kts 180°
2026-04-27 16:00 51.14421 9.57582 2334 ft 141 kts 180°
2026-04-27 16:00 51.13441 9.57487 2265 ft 141 kts 181°
2026-04-27 16:00 51.12463 9.57378 2226 ft 141 kts 181°
2026-04-27 16:00 51.11486 9.57255 2199 ft 141 kts 184°
2026-04-27 16:01 51.10508 9.57117 2210 ft 141 kts 183°
2026-04-27 16:01 51.09531 9.56959 2158 ft 141 kts 184°
2026-04-27 16:01 51.08554 9.56785 2073 ft 142 kts 185°
2026-04-27 16:01 51.07578 9.56596 2038 ft 142 kts 185°
2026-04-27 16:02 51.06590 9.56388 2066 ft 142 kts 186°
2026-04-27 16:02 51.05614 9.56215 2032 ft 141 kts 182°
2026-04-27 16:02 51.04632 9.56138 2051 ft 141 kts 179°
2026-04-27 16:02 51.03660 9.56157 2057 ft 139 kts 175°
2026-04-27 16:03 51.02692 9.56274 2079 ft 139 kts 171°
2026-04-27 16:03 51.01738 9.56483 2125 ft 139 kts 166°
2026-04-27 16:03 51.00795 9.56784 2135 ft 137 kts 163°
2026-04-27 16:03 50.99874 9.57176 2156 ft 136 kts 158°
2026-04-27 16:04 50.98977 9.57647 2137 ft 136 kts 156°
2026-04-27 16:04 50.98088 9.58142 2087 ft 135 kts 156°
2026-04-27 16:04 50.97211 9.58640 2162 ft 132 kts 158°
2026-04-27 16:04 50.96346 9.59111 2267 ft 131 kts 159°
2026-04-27 16:05 50.95485 9.59552 2351 ft 130 kts 159°
2026-04-27 16:05 50.94625 9.59964 2402 ft 128 kts 160°
2026-04-27 16:05 50.93768 9.60348 2501 ft 127 kts 162°
2026-04-27 16:05 50.92927 9.60699 2650 ft 126 kts 163°
2026-04-27 16:06 50.92062 9.61031 2811 ft 126 kts 165°
2026-04-27 16:06 50.91205 9.61327 2931 ft 127 kts 165°
2026-04-27 16:06 50.90333 9.61593 3049 ft 127 kts 166°
2026-04-27 16:06 50.89459 9.61828 3158 ft 128 kts 166°
2026-04-27 16:07 50.88573 9.62036 3307 ft 130 kts 168°
2026-04-27 16:07 50.87661 9.62244 3310 ft 135 kts 168°
2026-04-27 16:07 50.86720 9.62468 3334 ft 138 kts 169°
2026-04-27 16:07 50.85771 9.62705 3304 ft 140 kts 168°
2026-04-27 16:08 50.84802 9.62964 3255 ft 142 kts 167°
2026-04-27 16:08 50.83831 9.63238 3164 ft 143 kts 166°
2026-04-27 16:08 50.82849 9.63537 3109 ft 144 kts 165°
2026-04-27 16:08 50.81864 9.63857 3053 ft 144 kts 166°
2026-04-27 16:09 50.80883 9.64198 2985 ft 145 kts 165°
2026-04-27 16:09 50.78933 9.64948 2882 ft 144 kts 163°
2026-04-27 16:09 50.77966 9.65354 2793 ft 144 kts 162°
2026-04-27 16:10 50.76020 9.66133 2718 ft 143 kts 165°
2026-04-27 16:10 50.74070 9.66786 2592 ft 144 kts 167°
2026-04-27 16:11 50.73087 9.67078 2555 ft 144 kts 166°
2026-04-27 16:11 50.71117 9.67646 2413 ft 144 kts 167°
2026-04-27 16:12 50.69137 9.68191 2300 ft 144 kts 167°
2026-04-27 16:12 50.68141 9.68457 2296 ft 145 kts 168°
2026-04-27 16:12 50.66144 9.68967 2194 ft 145 kts 167°
2026-04-27 16:13 50.65150 9.69213 2184 ft 144 kts 169°
2026-04-27 16:13 50.63185 9.69682 2202 ft 142 kts 169°
2026-04-27 16:13 50.62211 9.69885 2181 ft 140 kts 168°
2026-04-27 16:14 50.60319 9.70345 2185 ft 137 kts 169°
2026-04-27 16:14 50.58418 9.70746 2242 ft 137 kts 170°
2026-04-27 16:15 50.56513 9.71030 2245 ft 140 kts 172°
2026-04-27 16:15 50.54562 9.71302 2170 ft 139 kts 173°
2026-04-27 16:16 50.52655 9.71493 2174 ft 138 kts 175°
2026-04-27 16:16 50.50727 9.71572 2114 ft 137 kts 176°
2026-04-27 16:17 50.48804 9.71526 2091 ft 139 kts 179°
2026-04-27 16:17 50.46865 9.71480 2154 ft 138 kts 179°
2026-04-27 16:18 50.44937 9.71481 2293 ft 138 kts 178°
2026-04-27 16:18 50.43026 9.71525 2436 ft 137 kts 176°
2026-04-27 16:19 50.42072 9.71556 2505 ft 137 kts 177°
2026-04-27 16:19 50.41126 9.71571 2508 ft 137 kts 177°
2026-04-27 16:20 50.38266 9.71597 2505 ft 137 kts 178°
2026-04-27 16:20 50.37297 9.71594 2501 ft 138 kts 178°
2026-04-27 16:20 50.35407 9.71609 2500 ft 138 kts 177°
2026-04-27 16:21 50.34446 9.71599 2510 ft 136 kts 178°
2026-04-27 16:21 50.31613 9.71604 2499 ft 137 kts 178°
2026-04-27 16:22 50.30652 9.71646 2544 ft 137 kts 177°
2026-04-27 16:22 50.28737 9.71733 2510 ft 139 kts 178°
2026-04-27 16:22 50.27772 9.71770 2508 ft 138 kts 178°
2026-04-27 16:23 50.26809 9.71811 2497 ft 137 kts 178°
2026-04-27 16:23 50.24908 9.71879 2506 ft 134 kts 177°
2026-04-27 16:23 50.24280 9.71892 2500 ft 138 kts 178°
2026-04-27 16:24 50.23339 9.71916 2503 ft 134 kts 178°
2026-04-27 16:24 50.21472 9.71966 2502 ft 134 kts 178°
2026-04-27 16:25 50.19610 9.72040 2504 ft 135 kts 177°
2026-04-27 16:25 50.17719 9.72115 2494 ft 136 kts 178°
2026-04-27 16:26 50.15822 9.72188 2489 ft 138 kts 178°
2026-04-27 16:26 50.13918 9.72238 2483 ft 137 kts 179°
2026-04-27 16:27 50.12041 9.72273 2498 ft 136 kts 177°
2026-04-27 16:27 50.09200 9.72336 2497 ft 138 kts 177°
2026-04-27 16:28 50.07278 9.72393 2496 ft 137 kts 178°
2026-04-27 16:28 50.05360 9.72459 2501 ft 139 kts 178°
2026-04-27 16:29 50.02503 9.72530 2499 ft 135 kts 178°
2026-04-27 16:30 50.00620 9.72565 2489 ft 137 kts 178°
2026-04-27 16:30 49.98726 9.72549 2501 ft 135 kts 178°
2026-04-27 16:31 49.95840 9.72556 2492 ft 139 kts 178°
2026-04-27 16:31 49.93910 9.72551 2500 ft 137 kts 178°
2026-04-27 16:32 49.91988 9.72559 2492 ft 139 kts 178°
2026-04-27 16:32 49.91025 9.72561 2496 ft 138 kts 177°
2026-04-27 16:33 49.89117 9.72548 2491 ft 137 kts 178°
2026-04-27 16:33 49.88163 9.72546 2489 ft 136 kts 178°
2026-04-27 16:33 49.87214 9.72546 2491 ft 136 kts 178°
2026-04-27 16:33 49.86260 9.72541 2496 ft 136 kts 177°
2026-04-27 16:34 49.85317 9.72533 2487 ft 137 kts 177°
2026-04-27 16:34 49.84364 9.72526 2490 ft 137 kts 177°
2026-04-27 16:34 49.83413 9.72521 2496 ft 136 kts 178°
2026-04-27 16:34 49.82451 9.72526 2494 ft 139 kts 177°
2026-04-27 16:35 49.81486 9.72534 2494 ft 138 kts 178°
2026-04-27 16:35 49.80538 9.72543 2494 ft 138 kts 179°
2026-04-27 16:35 49.78621 9.72570 2495 ft 137 kts 178°
2026-04-27 16:36 49.77652 9.72575 2502 ft 138 kts 178°
2026-04-27 16:36 49.76697 9.72577 2497 ft 138 kts 178°
2026-04-27 16:36 49.75742 9.72573 2496 ft 137 kts 178°
2026-04-27 16:36 49.74785 9.72566 2502 ft 138 kts 178°
2026-04-27 16:37 49.73824 9.72565 2487 ft 138 kts 177°
2026-04-27 16:37 49.72867 9.72556 2489 ft 137 kts 178°
2026-04-27 16:37 49.71909 9.72559 2490 ft 138 kts 178°
2026-04-27 16:37 49.70955 9.72562 2489 ft 137 kts 178°
2026-04-27 16:38 49.70005 9.72565 2485 ft 137 kts 178°
2026-04-27 16:38 49.69058 9.72580 2487 ft 136 kts 177°
2026-04-27 16:38 49.68101 9.72592 2485 ft 138 kts 177°
2026-04-27 16:38 49.67146 9.72600 2483 ft 137 kts 178°
2026-04-27 16:39 49.66208 9.72605 2490 ft 135 kts 178°
2026-04-27 16:39 49.65264 9.72605 2492 ft 135 kts 178°
2026-04-27 16:39 49.64317 9.72607 2487 ft 137 kts 178°
2026-04-27 16:39 49.63363 9.72606 2488 ft 136 kts 178°
2026-04-27 16:40 49.62420 9.72602 2491 ft 135 kts 177°
2026-04-27 16:40 49.61476 9.72594 2487 ft 136 kts 178°
2026-04-27 16:40 49.60524 9.72592 2486 ft 137 kts 178°
2026-04-27 16:40 49.59567 9.72601 2483 ft 138 kts 178°
2026-04-27 16:41 49.58596 9.72615 2483 ft 138 kts 177°
2026-04-27 16:41 49.57634 9.72635 2478 ft 138 kts 177°
2026-04-27 16:41 49.56672 9.72649 2477 ft 138 kts 178°
2026-04-27 16:41 49.55728 9.72664 2481 ft 137 kts 177°
2026-04-27 16:42 49.54773 9.72665 2476 ft 137 kts 178°
2026-04-27 16:42 49.53818 9.72667 2488 ft 137 kts 178°
2026-04-27 16:42 49.52864 9.72667 2481 ft 136 kts 178°
2026-04-27 16:42 49.51911 9.72656 2480 ft 137 kts 178°
2026-04-27 16:43 49.50963 9.72649 2475 ft 137 kts 178°
2026-04-27 16:43 49.50019 9.72638 2486 ft 135 kts 178°
2026-04-27 16:43 49.49076 9.72629 2489 ft 133 kts 178°
2026-04-27 16:43 49.48132 9.72618 2491 ft 135 kts 178°
2026-04-27 16:44 49.47192 9.72608 2481 ft 136 kts 178°
2026-04-27 16:44 49.46245 9.72601 2474 ft 137 kts 178°
2026-04-27 16:44 49.45299 9.72600 2484 ft 135 kts 178°
2026-04-27 16:44 49.44361 9.72606 2486 ft 137 kts 178°
2026-04-27 16:45 49.43405 9.72609 2488 ft 137 kts 178°
2026-04-27 16:45 49.42456 9.72615 2477 ft 136 kts 178°
2026-04-27 16:45 49.41508 9.72620 2473 ft 138 kts 178°
2026-04-27 16:45 49.40553 9.72623 2477 ft 137 kts 178°
2026-04-27 16:46 49.39602 9.72625 2481 ft 138 kts 178°
2026-04-27 16:46 49.38656 9.72626 2483 ft 135 kts 178°
2026-04-27 16:46 49.37703 9.72627 2481 ft 137 kts 177°
2026-04-27 16:46 49.36749 9.72621 2472 ft 138 kts 178°
2026-04-27 16:47 49.35795 9.72612 2483 ft 136 kts 178°
2026-04-27 16:47 49.34841 9.72605 2482 ft 137 kts 178°
2026-04-27 16:47 49.33892 9.72604 2475 ft 136 kts 177°
2026-04-27 16:47 49.32940 9.72598 2478 ft 136 kts 178°
2026-04-27 16:48 49.31995 9.72593 2478 ft 136 kts 178°
2026-04-27 16:48 49.31044 9.72587 2478 ft 136 kts 178°
2026-04-27 16:48 49.30102 9.72583 2472 ft 136 kts 178°
2026-04-27 16:49 49.28231 9.72585 2480 ft 135 kts 178°
2026-04-27 16:49 49.27293 9.72587 2477 ft 135 kts 178°
2026-04-27 16:49 49.26347 9.72589 2486 ft 136 kts 177°
2026-04-27 16:49 49.25398 9.72598 2475 ft 138 kts 178°
2026-04-27 16:50 49.24451 9.72600 2477 ft 135 kts 178°
2026-04-27 16:50 49.23500 9.72595 2489 ft 136 kts 178°
2026-04-27 16:50 49.22547 9.72591 2480 ft 139 kts 178°
2026-04-27 16:50 49.21582 9.72584 2479 ft 137 kts 178°
2026-04-27 16:51 49.20623 9.72584 2479 ft 138 kts 178°
2026-04-27 16:51 49.19663 9.72593 2479 ft 138 kts 178°
2026-04-27 16:51 49.18712 9.72596 2472 ft 136 kts 178°
2026-04-27 16:51 49.17754 9.72594 2495 ft 136 kts 178°
2026-04-27 16:52 49.16801 9.72588 2476 ft 139 kts 178°
2026-04-27 16:52 49.15848 9.72584 2470 ft 137 kts 177°
2026-04-27 16:52 49.14899 9.72579 2471 ft 136 kts 178°
2026-04-27 16:52 49.13960 9.72572 2480 ft 135 kts 178°
2026-04-27 16:53 49.13010 9.72563 2480 ft 137 kts 178°
2026-04-27 16:53 49.12063 9.72548 2474 ft 137 kts 178°
2026-04-27 16:53 49.11108 9.72541 2485 ft 136 kts 178°
2026-04-27 16:53 49.10159 9.72539 2479 ft 137 kts 178°
2026-04-27 16:54 49.09207 9.72541 2482 ft 137 kts 178°
2026-04-27 16:54 49.08252 9.72540 2475 ft 137 kts 178°
2026-04-27 16:54 49.07295 9.72548 2476 ft 137 kts 179°
2026-04-27 16:54 49.06339 9.72569 2478 ft 137 kts 177°
2026-04-27 16:55 49.05381 9.72583 2485 ft 138 kts 178°
2026-04-27 16:55 49.04423 9.72601 2474 ft 139 kts 178°
2026-04-27 16:55 49.03457 9.72619 2484 ft 137 kts 178°
2026-04-27 16:55 49.02500 9.72646 2476 ft 138 kts 177°
2026-04-27 16:56 49.01541 9.72665 2484 ft 136 kts 178°
2026-04-27 16:56 49.00594 9.72690 2475 ft 138 kts 178°
2026-04-27 16:56 48.99634 9.72709 2473 ft 137 kts 178°
2026-04-27 16:56 48.98677 9.72717 2469 ft 139 kts 177°
2026-04-27 16:57 48.97718 9.72714 2471 ft 138 kts 178°
2026-04-27 16:57 48.96759 9.72718 2480 ft 136 kts 178°
2026-04-27 16:57 48.95806 9.72726 2470 ft 137 kts 178°
2026-04-27 16:57 48.94857 9.72736 2472 ft 136 kts 178°
2026-04-27 16:58 48.93906 9.72745 2467 ft 138 kts 178°
2026-04-27 16:58 48.92964 9.72748 2474 ft 135 kts 178°
2026-04-27 16:58 48.92021 9.72754 2485 ft 134 kts 179°
2026-04-27 16:58 48.91069 9.72772 2482 ft 135 kts 177°
2026-04-27 16:59 48.90135 9.72781 2465 ft 137 kts 178°
2026-04-27 16:59 48.89195 9.72784 2461 ft 136 kts 179°
2026-04-27 16:59 48.88243 9.72805 2467 ft 137 kts 178°
2026-04-27 16:59 48.87282 9.72830 2465 ft 137 kts 178°
2026-04-27 17:00 48.86002 9.72871 2465 ft 138 kts 178°
2026-04-27 17:00 48.84398 9.72914 2471 ft 140 kts 178°
2026-04-27 17:00 48.83430 9.72943 2471 ft 138 kts 178°
2026-04-27 17:01 48.82473 9.72971 2461 ft 139 kts 178°
2026-04-27 17:01 48.81511 9.73002 2457 ft 138 kts 178°
2026-04-27 17:01 48.80556 9.73039 2444 ft 138 kts 178°
2026-04-27 17:01 48.79605 9.73072 2466 ft 135 kts 178°
2026-04-27 17:02 48.78646 9.73104 2471 ft 136 kts 178°
2026-04-27 17:02 48.77698 9.73137 2457 ft 137 kts 178°
2026-04-27 17:02 48.76747 9.73177 2453 ft 137 kts 178°
2026-04-27 17:02 48.75798 9.73217 2454 ft 136 kts 178°
2026-04-27 17:03 48.74841 9.73252 2452 ft 137 kts 178°
2026-04-27 17:03 48.73884 9.73282 2460 ft 135 kts 178°
2026-04-27 17:03 48.72932 9.73312 2445 ft 138 kts 178°
2026-04-27 17:03 48.71983 9.73339 2443 ft 137 kts 178°
2026-04-27 17:04 48.71024 9.73361 2451 ft 138 kts 178°
2026-04-27 17:04 48.70057 9.73383 2447 ft 140 kts 178°
2026-04-27 17:04 48.69095 9.73403 2446 ft 138 kts 178°
2026-04-27 17:04 48.68125 9.73428 2455 ft 138 kts 178°
2026-04-27 17:05 48.67163 9.73466 2452 ft 138 kts 176°
2026-04-27 17:05 48.66194 9.73502 2441 ft 141 kts 178°
2026-04-27 17:05 48.65211 9.73556 2450 ft 140 kts 178°
2026-04-27 17:05 48.64564 9.73594 2443 ft 140 kts 177°
2026-04-27 17:06 48.63438 9.73664 3069 ft 27 kts 177°
2026-04-27 17:06 48.63502 9.73585 2972 ft 67 kts 18°
2026-04-27 17:06 48.63774 9.74028 3241 ft 56 kts 78°
2026-04-27 17:06 48.63665 9.74493 3183 ft 42 kts 132°
2026-04-27 17:07 48.63450 9.74683 3146 ft 32 kts 178°
2026-04-27 17:07 48.63240 9.74794 3129 ft 32 kts 178°
2026-04-27 17:07 48.63032 9.74874 3117 ft 31 kts 179°
2026-04-27 17:07 48.62798 9.74913 3128 ft 36 kts 178°
2026-04-27 17:08 48.62542 9.74913 3131 ft 37 kts 179°
2026-04-27 17:08 48.62291 9.74896 3129 ft 34 kts 179°
2026-04-27 17:08 48.62052 9.74869 3124 ft 37 kts 179°
2026-04-27 17:08 48.61796 9.74837 3127 ft 37 kts 179°
2026-04-27 17:09 48.61545 9.74810 3125 ft 36 kts 179°
2026-04-27 17:09 48.61291 9.74775 3122 ft 38 kts 179°
2026-04-27 17:09 48.61029 9.74730 3118 ft 38 kts 179°
2026-04-27 17:09 48.60762 9.74674 3126 ft 40 kts 179°
2026-04-27 17:10 48.60488 9.74611 3127 ft 40 kts 179°
2026-04-27 17:10 48.60206 9.74548 3127 ft 42 kts 179°
2026-04-27 17:10 48.59926 9.74482 3132 ft 38 kts 179°
2026-04-27 17:10 48.59678 9.74425 3117 ft 35 kts 179°
2026-04-27 17:11 48.59429 9.74374 3103 ft 39 kts 179°
2026-04-27 17:11 48.58872 9.74219 3128 ft 39 kts 179°
2026-04-27 17:11 48.58605 9.74145 3116 ft 38 kts 179°
2026-04-27 17:12 48.58088 9.74023 3128 ft 38 kts 179°
2026-04-27 17:12 48.57819 9.73968 3113 ft 38 kts 179°
2026-04-27 17:12 48.57529 9.73896 3399 ft 55 kts 180°
2026-04-27 17:13 48.57047 9.73788 3567 ft 87 kts 180°
2026-04-27 17:13 48.56316 9.73678 3522 ft 124 kts 179°
2026-04-27 17:13 48.55369 9.73569 3376 ft 142 kts 179°
2026-04-27 17:13 48.54379 9.73486 3377 ft 142 kts 179°
2026-04-27 17:14 48.53406 9.73432 3428 ft 140 kts 179°
2026-04-27 17:14 48.52425 9.73392 3409 ft 139 kts 179°
2026-04-27 17:14 48.51461 9.73354 3400 ft 139 kts 179°
2026-04-27 17:14 48.50496 9.73321 3393 ft 138 kts 179°
2026-04-27 17:15 48.49541 9.73328 3402 ft 137 kts 176°
2026-04-27 17:15 48.48589 9.73333 3408 ft 136 kts 177°
2026-04-27 17:15 48.47640 9.73342 3408 ft 136 kts 177°
2026-04-27 17:15 48.46688 9.73350 3425 ft 137 kts 176°
2026-04-27 17:16 48.45748 9.73361 3488 ft 135 kts 177°
2026-04-27 17:16 48.44795 9.73381 3459 ft 138 kts 177°
2026-04-27 17:16 48.43840 9.73411 3510 ft 135 kts 176°
2026-04-27 17:16 48.42893 9.73427 3475 ft 137 kts 176°
2026-04-27 17:17 48.41942 9.73445 3475 ft 136 kts 176°
2026-04-27 17:17 48.40998 9.73461 3491 ft 135 kts 176°
2026-04-27 17:17 48.40063 9.73473 3446 ft 135 kts 177°
2026-04-27 17:18 48.38184 9.73495 3402 ft 137 kts 177°
2026-04-27 17:18 48.37218 9.73513 3388 ft 135 kts 177°
2026-04-27 17:18 48.36273 9.73532 3406 ft 137 kts 176°
2026-04-27 17:18 48.35318 9.73543 3399 ft 137 kts 177°
2026-04-27 17:19 48.34370 9.73562 3400 ft 137 kts 176°
2026-04-27 17:19 48.33413 9.73573 3410 ft 138 kts 177°
2026-04-27 17:19 48.32464 9.73587 3383 ft 136 kts 176°
2026-04-27 17:19 48.31526 9.73600 3352 ft 136 kts 177°
2026-04-27 17:20 48.30558 9.73612 3340 ft 138 kts 177°
2026-04-27 17:20 48.29608 9.73620 3386 ft 137 kts 177°
2026-04-27 17:20 48.28663 9.73613 3406 ft 136 kts 178°
2026-04-27 17:20 48.27690 9.73619 3417 ft 138 kts 177°
2026-04-27 17:21 48.26736 9.73623 3402 ft 139 kts 177°
2026-04-27 17:21 48.25758 9.73630 3392 ft 141 kts 176°
2026-04-27 17:21 48.24793 9.73642 3425 ft 138 kts 177°
2026-04-27 17:21 48.23823 9.73692 3336 ft 142 kts 169°
2026-04-27 17:22 48.22848 9.73959 3280 ft 141 kts 163°
2026-04-27 17:22 48.21931 9.74365 3170 ft 134 kts 154°
2026-04-27 17:22 48.21127 9.75018 3013 ft 129 kts 142°
2026-04-27 17:22 48.20527 9.75979 2848 ft 126 kts 117°
2026-04-27 17:23 48.20248 9.77199 2711 ft 123 kts 98°
2026-04-27 17:23 48.20250 9.78461 2611 ft 119 kts 79°
2026-04-27 17:23 48.20371 9.79252 2519 ft 117 kts 73°
2026-04-27 17:23 48.20564 9.80434 2466 ft 116 kts 75°
2026-04-27 17:24 48.20745 9.81618 2420 ft 116 kts 75°
2026-04-27 17:24 48.20908 9.82786 2414 ft 113 kts 76°
2026-04-27 17:24 48.21030 9.83940 2399 ft 111 kts 81°
2026-04-27 17:24 48.21102 9.85087 2389 ft 110 kts 82°
2026-04-27 17:25 48.21225 9.86197 2372 ft 105 kts 75°
2026-04-27 17:25 48.21417 9.87172 2245 ft 89 kts 70°
2026-04-27 17:25 48.21608 9.87912 2101 ft 62 kts 62°
2026-04-27 17:25 48.21772 9.88450 2113 ft 55 kts 66°
2026-04-27 17:26 48.21896 9.88963 2067 ft 48 kts 69°
2026-04-27 17:26 48.22002 9.89380 2027 ft 39 kts 68°
2026-04-27 17:26 48.22043 9.89751 1956 ft 33 kts 82°
2026-04-27 17:26 48.22042 9.90076 1923 ft 29 kts 87°
2026-04-27 17:27 48.22034 9.90366 1912 ft 29 kts 85°
2026-04-27 17:27 48.22022 9.90680 1878 ft 29 kts 88°
2026-04-27 17:27 48.22014 9.90961 1832 ft 25 kts 96°
2026-04-27 17:27 48.22007 9.91164 1798 ft 14 kts 94°
2026-04-27 17:28 48.21945 9.91223 1786 ft 12 kts 179°
2026-04-27 17:28 48.21868 9.91220 1782 ft 9 kts 179°
2026-04-27 17:28 48.21790 9.91199 1782 ft 6 kts 126°
2026-04-27 17:29 48.21791 9.91183 1779 ft 0 kts 111°